Time;durP1;ratioP1;P1;durP2;ratioP2;P2;SDS_P1;SDS_P2;PMS_P1;PMS_P2;Temp;Humidity;BMP_temperature;BMP_pressure;BME280_temperature;BME280_humidity;BME280_pressure;Samples;Min_cycle;Max_cycle;Signal;HPM_P1;HPM_P2
2023/10/07 00:00:25;;;;;;;10.37;5.33;;;16.40;99.90;;;;;;5079294;28;20200;-48
2023/10/07 00:02:55;;;;;;;8.60;5.70;;;16.40;99.90;;;;;;5079598;28;20190;-50
2023/10/07 00:05:28;;;;;;;9.10;5.70;;;16.40;99.90;;;;;;5051989;28;20623;-47
2023/10/07 00:08:00;;;;;;;8.20;4.77;;;16.40;99.90;;;;;;5076966;28;20701;-53
2023/10/07 00:10:28;;;;;;;9.37;5.67;;;16.40;99.90;;;;;;5065538;28;20309;-46
2023/10/07 00:12:57;;;;;;;9.30;5.30;;;16.40;99.90;;;;;;5073236;28;20194;-50
2023/10/07 00:15:28;;;;;;;9.03;5.37;;;16.40;99.90;;;;;;5080904;28;20866;-43
2023/10/07 00:18:00;;;;;;;10.43;5.17;;;16.40;99.90;;;;;;5080856;28;20209;-51
2023/10/07 00:20:28;;;;;;;7.50;5.10;;;16.40;99.90;;;;;;5081119;28;20194;-44
2023/10/07 00:23:00;;;;;;;4.93;4.40;;;16.40;99.90;;;;;;5051072;28;20209;-50
2023/10/07 00:25:30;;;;;;;9.17;4.50;;;16.40;99.90;;;;;;5079899;28;20277;-43
2023/10/07 00:27:58;;;;;;;7.77;4.67;;;16.40;99.90;;;;;;5074348;28;20198;-50
2023/10/07 00:30:27;;;;;;;9.47;5.00;;;16.40;99.90;;;;;;5086966;28;20301;-48
2023/10/07 00:32:55;;;;;;;10.63;4.90;;;16.40;99.90;;;;;;5069460;28;20193;-52
2023/10/07 00:35:24;;;;;;;7.27;4.33;;;16.40;99.90;;;;;;5071185;28;20272;-46
2023/10/07 00:37:52;;;;;;;8.00;5.13;;;16.40;99.90;;;;;;5052577;28;20724;-49
2023/10/07 00:40:31;;;;;;;9.97;4.73;;;16.40;99.90;;;;;;5076689;28;20805;-45
2023/10/07 00:42:58;;;;;;;8.57;4.47;;;16.40;99.90;;;;;;5075115;28;20204;-50
2023/10/07 00:45:26;;;;;;;7.03;4.90;;;16.40;99.90;;;;;;5077939;28;20190;-46
2023/10/07 00:47:53;;;;;;;9.50;4.60;;;16.40;99.90;;;;;;5079776;28;20268;-49
2023/10/07 00:50:22;;;;;;;9.03;4.63;;;16.40;99.90;;;;;;5067032;28;20213;-44
2023/10/07 00:52:57;;;;;;;6.43;4.87;;;16.40;99.90;;;;;;5076074;28;20194;-52
2023/10/07 00:55:29;;;;;;;7.23;4.47;;;16.40;99.90;;;;;;5052912;28;20205;-49
2023/10/07 00:58:13;;;;;;;9.30;4.40;;;16.40;99.90;;;;;;5080278;28;20194;-49
2023/10/07 01:00:47;;;;;;;4.87;3.80;;;16.40;99.90;;;;;;5069744;28;20241;-46
2023/10/07 01:03:23;;;;;;;6.27;4.43;;;16.40;99.90;;;;;;5078366;28;20496;-46
2023/10/07 01:06:10;;;;;;;7.47;4.20;;;16.40;99.90;;;;;;5069484;28;20206;-52
2023/10/07 01:08:44;;;;;;;8.60;4.40;;;16.40;99.90;;;;;;5081949;28;20304;-43
2023/10/07 01:11:19;;;;;;;4.43;4.03;;;16.40;99.90;;;;;;5034999;28;20215;-46
2023/10/07 01:13:50;;;;;;;8.30;4.73;;;16.40;99.90;;;;;;5081382;28;20193;-49
2023/10/07 01:16:27;;;;;;;9.00;5.43;;;16.40;99.90;;;;;;5056795;28;20208;-47
2023/10/07 01:19:05;;;;;;;12.40;5.40;;;16.40;99.90;;;;;;5077709;28;20229;-52
2023/10/07 01:21:32;;;;;;;6.23;5.30;;;16.40;99.90;;;;;;5074580;28;20233;-50
2023/10/07 01:24:05;;;;;;;8.63;5.87;;;16.40;99.90;;;;;;5057279;28;20269;-52
2023/10/07 01:26:39;;;;;;;6.73;5.10;;;16.40;99.90;;;;;;5082008;28;20193;-46
2023/10/07 01:29:13;;;;;;;7.77;5.03;;;16.40;99.90;;;;;;5069560;28;21533;-45
2023/10/07 01:31:59;;;;;;;7.77;4.70;;;16.40;99.90;;;;;;5074263;28;20213;-43
2023/10/07 01:34:26;;;;;;;7.23;4.57;;;16.40;99.90;;;;;;5084305;28;20201;-48
2023/10/07 01:36:55;;;;;;;4.50;3.80;;;16.40;99.90;;;;;;5076613;28;20210;-48
2023/10/07 01:39:24;;;;;;;5.33;3.50;;;16.40;99.90;;;;;;5083548;28;20225;-51
2023/10/07 01:41:51;;;;;;;5.93;3.63;;;16.40;99.90;;;;;;5052938;28;20226;-49
2023/10/07 01:44:24;;;;;;;4.27;3.77;;;16.40;99.90;;;;;;5063523;28;20875;-46
2023/10/07 01:46:56;;;;;;;6.73;3.90;;;16.40;99.90;;;;;;5074486;28;20273;-52
2023/10/07 01:49:23;;;;;;;3.83;2.83;;;16.40;99.90;;;;;;5068684;28;21032;-50
2023/10/07 01:51:52;;;;;;;3.20;2.90;;;16.40;99.90;;;;;;5075570;28;20680;-51
2023/10/07 01:54:20;;;;;;;3.00;2.70;;;16.40;99.90;;;;;;5087678;28;20306;-44
2023/10/07 01:56:52;;;;;;;3.70;2.77;;;16.40;99.90;;;;;;5055160;28;20209;-49
2023/10/07 01:59:19;;;;;;;2.50;2.10;;;16.40;99.90;;;;;;5067003;28;20206;-47
2023/10/07 02:01:53;;;;;;;4.13;1.90;;;16.40;99.90;;;;;;5059132;28;20217;-43
2023/10/07 02:04:26;;;;;;;2.67;1.50;;;16.40;99.90;;;;;;5082889;28;20222;-46
2023/10/07 02:06:54;;;;;;;4.57;1.60;;;16.30;99.90;;;;;;5072763;28;20703;-49
2023/10/07 02:09:25;;;;;;;2.10;1.90;;;16.40;99.90;;;;;;5083417;28;20217;-49
2023/10/07 02:11:55;;;;;;;2.63;1.50;;;16.30;99.90;;;;;;5030299;28;20220;-52
2023/10/07 02:14:24;;;;;;;1.70;1.23;;;16.30;99.90;;;;;;5082809;28;20193;-45
2023/10/07 02:16:52;;;;;;;1.50;1.40;;;16.40;99.90;;;;;;5072589;28;20230;-52
2023/10/07 02:19:29;;;;;;;2.07;1.07;;;16.30;99.90;;;;;;5068541;28;20208;-45
2023/10/07 02:22:00;;;;;;;1.50;1.40;;;16.30;99.90;;;;;;5058888;28;20198;-49
2023/10/07 02:24:30;;;;;;;1.43;1.00;;;16.30;99.90;;;;;;5084016;28;20274;-45
2023/10/07 02:27:05;;;;;;;0.90;0.90;;;16.30;99.90;;;;;;5048174;28;20259;-53
2023/10/07 02:29:32;;;;;;;0.77;0.77;;;16.30;99.90;;;;;;5081491;28;20302;-46
2023/10/07 02:32:13;;;;;;;1.90;0.90;;;16.30;99.90;;;;;;5071972;28;20703;-52
2023/10/07 02:34:51;;;;;;;2.30;1.00;;;16.30;99.90;;;;;;5074435;28;20200;-44
2023/10/07 02:37:22;;;;;;;1.63;0.80;;;16.30;99.90;;;;;;5053756;28;20232;-50
2023/10/07 02:39:50;;;;;;;1.93;0.80;;;16.30;99.90;;;;;;5083097;28;20249;-53
2023/10/07 02:42:21;;;;;;;1.27;0.80;;;16.30;99.90;;;;;;5053470;28;21895;-45
2023/10/07 02:45:00;;;;;;;2.20;1.20;;;16.30;99.90;;;;;;5084644;28;20198;-50
2023/10/07 02:47:31;;;;;;;1.73;1.03;;;16.30;99.90;;;;;;5072700;28;20330;-47
2023/10/07 02:50:00;;;;;;;4.43;0.80;;;16.30;99.90;;;;;;5063702;28;20337;-51
2023/10/07 02:52:35;;;;;;;1.40;0.60;;;16.30;99.90;;;;;;5072269;28;20202;-46
2023/10/07 02:55:37;;;;;;;2.00;1.20;;;16.30;99.90;;;;;;5062849;28;20194;-50
2023/10/07 02:58:07;;;;;;;2.20;0.70;;;16.20;99.90;;;;;;5048352;28;20205;-50
2023/10/07 03:00:36;;;;;;;1.77;0.70;;;16.10;99.90;;;;;;5063194;28;20668;-46
2023/10/07 03:03:32;;;;;;;4.20;0.67;;;16.10;99.90;;;;;;5069781;28;20213;-52
2023/10/07 03:06:02;;;;;;;2.50;0.80;;;16.00;99.90;;;;;;5082143;28;20190;-50
2023/10/07 03:08:47;;;;;;;4.50;0.97;;;16.00;99.90;;;;;;5078823;28;20228;-44
2023/10/07 03:11:21;;;;;;;4.47;1.33;;;15.90;99.90;;;;;;5078625;28;20202;-43
2023/10/07 03:13:50;;;;;;;6.37;1.10;;;15.90;99.90;;;;;;5053306;28;20205;-51
2023/10/07 03:16:29;;;;;;;3.53;1.20;;;15.80;99.90;;;;;;5076176;28;20916;-48
2023/10/07 03:19:06;;;;;;;3.50;1.10;;;15.70;99.90;;;;;;5069245;28;20222;-46
2023/10/07 03:21:55;;;;;;;7.73;1.60;;;15.60;99.90;;;;;;5083574;28;20591;-45
2023/10/07 03:24:41;;;;;;;2.77;1.00;;;15.60;99.90;;;;;;5074321;28;20865;-46
2023/10/07 03:27:22;;;;;;;3.63;0.93;;;15.60;99.90;;;;;;5079288;28;20190;-43
2023/10/07 03:30:12;;;;;;;4.30;1.30;;;15.50;99.90;;;;;;5042165;28;20277;-49
2023/10/07 03:32:56;;;;;;;1.67;1.13;;;15.50;99.90;;;;;;5081707;28;20217;-48
2023/10/07 03:35:36;;;;;;;4.00;1.13;;;15.50;99.90;;;;;;5075691;28;20246;-47
2023/10/07 03:38:08;;;;;;;3.10;1.00;;;15.50;99.90;;;;;;5077071;28;20207;-51
2023/10/07 03:40:38;;;;;;;4.00;0.90;;;15.50;99.90;;;;;;5073763;28;20553;-43
2023/10/07 03:43:08;;;;;;;1.90;0.70;;;15.50;99.90;;;;;;5078772;28;20213;-51
2023/10/07 03:45:39;;;;;;;5.13;0.90;;;15.50;99.90;;;;;;5061361;28;20679;-43
2023/10/07 03:48:22;;;;;;;3.67;1.00;;;15.50;99.90;;;;;;5075090;28;20251;-46
2023/10/07 03:50:59;;;;;;;2.93;0.90;;;15.50;99.90;;;;;;5071293;28;20214;-52
2023/10/07 03:53:31;;;;;;;4.30;1.20;;;15.40;99.90;;;;;;5081064;28;20269;-45
2023/10/07 03:55:59;;;;;;;5.87;1.07;;;15.40;99.90;;;;;;5069879;28;20277;-48
2023/10/07 03:58:27;;;;;;;5.37;1.30;;;15.40;99.90;;;;;;5081532;28;20761;-49
2023/10/07 04:00:56;;;;;;;5.80;1.20;;;15.40;99.90;;;;;;5033632;28;20216;-45
2023/10/07 04:03:24;;;;;;;5.30;1.17;;;15.30;99.90;;;;;;5079889;28;20202;-52
2023/10/07 04:05:51;;;;;;;5.43;1.93;;;15.30;99.90;;;;;;5070560;28;20210;-45
2023/10/07 04:08:19;;;;;;;11.23;1.97;;;15.30;99.90;;;;;;5072714;28;20205;-48
2023/10/07 04:10:47;;;;;;;11.33;1.80;;;15.20;99.90;;;;;;5073480;28;20217;-43
2023/10/07 04:13:21;;;;;;;5.17;1.73;;;15.20;99.90;;;;;;5081702;28;20648;-52
2023/10/07 04:15:52;;;;;;;9.60;2.20;;;15.20;99.90;;;;;;5054708;28;20279;-44
2023/10/07 04:18:33;;;;;;;9.07;2.13;;;15.10;99.90;;;;;;5080142;28;20193;-52
2023/10/07 04:21:01;;;;;;;10.73;2.60;;;15.10;99.90;;;;;;5060869;28;20204;-43
2023/10/07 04:23:27;;;;;;;10.00;1.70;;;15.00;99.90;;;;;;5077404;28;20205;-47
2023/10/07 04:26:04;;;;;;;8.37;1.80;;;15.00;99.90;;;;;;5072022;28;20234;-45
2023/10/07 04:28:31;;;;;;;12.17;2.10;;;14.90;99.90;;;;;;5076653;28;20212;-48
2023/10/07 04:30:58;;;;;;;10.90;2.27;;;14.90;99.90;;;;;;5052028;28;20218;-44
2023/10/07 04:33:32;;;;;;;9.87;1.63;;;14.80;99.90;;;;;;5078290;28;20342;-47
2023/10/07 04:36:04;;;;;;;10.90;2.10;;;14.90;99.90;;;;;;5081863;28;20194;-47
2023/10/07 04:38:52;;;;;;;12.30;3.03;;;14.80;99.90;;;;;;5068794;28;20442;-48
2023/10/07 04:41:32;;;;;;;12.63;2.20;;;14.80;99.90;;;;;;5069762;28;20186;-51
2023/10/07 04:44:20;;;;;;;10.73;1.80;;;14.80;99.90;;;;;;5082415;28;20193;-45
2023/10/07 04:46:55;;;;;;;12.77;2.07;;;14.80;99.90;;;;;;5051573;28;20276;-49
2023/10/07 04:49:36;;;;;;;8.63;1.50;;;14.70;99.90;;;;;;5078087;28;20296;-50
2023/10/07 04:52:05;;;;;;;10.53;2.83;;;14.80;99.90;;;;;;5071577;28;20206;-43
2023/10/07 04:54:35;;;;;;;4.97;1.70;;;14.70;99.90;;;;;;5070606;28;20202;-43
2023/10/07 04:57:09;;;;;;;8.47;1.93;;;14.70;99.90;;;;;;5073175;28;20311;-46
2023/10/07 04:59:45;;;;;;;10.00;3.40;;;14.80;99.90;;;;;;5070723;28;20210;-45
2023/10/07 05:02:12;;;;;;;9.27;2.00;;;14.70;99.90;;;;;;5073707;28;20268;-49
2023/10/07 05:04:48;;;;;;;10.57;2.43;;;14.70;99.90;;;;;;5068905;28;20903;-44
2023/10/07 05:07:18;;;;;;;10.30;2.00;;;14.70;99.90;;;;;;5072296;28;20752;-51
2023/10/07 05:09:47;;;;;;;7.17;2.03;;;14.80;99.90;;;;;;5084555;28;20218;-45
2023/10/07 05:12:13;;;;;;;7.87;2.27;;;14.80;99.90;;;;;;5066916;28;20629;-52
2023/10/07 05:14:40;;;;;;;8.03;1.70;;;14.80;99.90;;;;;;5084537;28;20194;-49
2023/10/07 05:17:10;;;;;;;15.47;2.40;;;14.80;99.90;;;;;;5072524;28;20203;-44
2023/10/07 05:19:37;;;;;;;8.80;2.03;;;14.80;99.90;;;;;;5056844;28;20758;-43
2023/10/07 05:22:14;;;;;;;8.03;1.90;;;14.80;99.90;;;;;;5067931;28;21995;-47
2023/10/07 05:24:41;;;;;;;10.93;2.50;;;14.80;99.90;;;;;;5074740;28;20205;-43
2023/10/07 05:27:08;;;;;;;10.23;2.03;;;14.80;99.90;;;;;;5066287;28;20226;-47
2023/10/07 05:29:35;;;;;;;11.93;2.97;;;14.80;99.90;;;;;;5085465;28;20267;-48
2023/10/07 05:32:02;;;;;;;7.93;1.87;;;14.80;99.90;;;;;;5072915;28;20210;-46
2023/10/07 05:34:29;;;;;;;11.17;2.47;;;14.80;99.90;;;;;;5056512;28;20606;-51
2023/10/07 05:36:59;;;;;;;9.93;2.13;;;14.80;99.90;;;;;;5069978;28;21251;-43
2023/10/07 05:39:27;;;;;;;13.53;2.40;;;14.80;99.90;;;;;;5082139;28;20217;-43
2023/10/07 05:41:54;;;;;;;12.10;1.87;;;14.80;99.90;;;;;;5074383;28;20279;-45
2023/10/07 05:44:21;;;;;;;15.53;2.33;;;14.80;99.90;;;;;;5084709;28;20239;-49
2023/10/07 05:46:48;;;;;;;13.67;2.20;;;14.80;99.90;;;;;;5083848;28;20268;-47
2023/10/07 05:49:15;;;;;;;9.13;2.50;;;14.80;99.90;;;;;;5084949;28;20703;-46
2023/10/07 05:51:44;;;;;;;9.80;1.83;;;14.80;99.90;;;;;;5047703;28;20213;-50
2023/10/07 05:54:11;;;;;;;12.47;2.53;;;14.80;99.90;;;;;;5085958;28;20202;-48
2023/10/07 05:56:41;;;;;;;9.93;1.90;;;14.80;99.90;;;;;;5072409;28;20275;-50
2023/10/07 05:59:09;;;;;;;12.17;2.20;;;14.80;99.90;;;;;;5068440;28;20231;-50
2023/10/07 06:01:38;;;;;;;8.43;2.17;;;14.80;99.90;;;;;;5080671;28;20271;-50
2023/10/07 06:04:07;;;;;;;9.10;1.70;;;14.80;99.90;;;;;;5072267;28;20194;-48
2023/10/07 06:06:35;;;;;;;10.60;2.40;;;14.80;99.90;;;;;;5044558;28;20210;-49
2023/10/07 06:09:03;;;;;;;7.27;2.13;;;14.80;99.90;;;;;;5076078;28;20418;-47
2023/10/07 06:11:31;;;;;;;7.50;1.87;;;14.80;99.90;;;;;;5075737;28;20314;-43
2023/10/07 06:14:01;;;;;;;12.13;2.27;;;14.80;99.90;;;;;;5064352;28;20213;-47
2023/10/07 06:16:29;;;;;;;8.80;2.17;;;14.80;99.90;;;;;;5084408;28;20224;-47
2023/10/07 06:18:56;;;;;;;9.53;1.93;;;14.90;99.90;;;;;;5071716;28;20218;-47
2023/10/07 06:21:27;;;;;;;7.93;1.77;;;14.90;99.90;;;;;;5056958;28;20221;-47
2023/10/07 06:23:55;;;;;;;11.37;1.87;;;14.90;99.90;;;;;;5064403;28;20202;-47
2023/10/07 06:26:22;;;;;;;9.17;2.10;;;14.80;99.90;;;;;;5066693;28;20684;-48
2023/10/07 06:28:50;;;;;;;4.83;1.10;;;14.90;99.90;;;;;;5071914;28;20289;-48
2023/10/07 06:31:22;;;;;;;8.13;1.83;;;14.80;99.90;;;;;;5075149;28;20305;-46
2023/10/07 06:33:59;;;;;;;10.43;1.60;;;14.80;99.90;;;;;;5072191;28;20204;-52
2023/10/07 06:36:27;;;;;;;3.80;1.50;;;14.80;99.90;;;;;;5051686;28;20210;-48
2023/10/07 06:38:58;;;;;;;8.20;1.80;;;14.80;99.90;;;;;;5066058;28;20263;-51
2023/10/07 06:41:27;;;;;;;13.20;2.70;;;14.80;99.90;;;;;;5072174;28;20194;-48
2023/10/07 06:43:59;;;;;;;8.17;2.43;;;14.80;99.90;;;;;;5079437;28;20218;-48
2023/10/07 06:46:40;;;;;;;9.07;1.60;;;14.80;99.90;;;;;;5065309;28;20217;-46
2023/10/07 06:49:07;;;;;;;6.70;1.73;;;14.80;99.90;;;;;;5073122;28;20964;-48
2023/10/07 06:51:36;;;;;;;8.63;2.20;;;14.80;99.90;;;;;;5051807;28;20263;-48
2023/10/07 06:54:06;;;;;;;6.63;1.33;;;14.80;99.90;;;;;;5049832;28;20264;-48
2023/10/07 06:56:34;;;;;;;4.73;1.30;;;14.80;99.90;;;;;;5072507;28;20637;-45
2023/10/07 06:59:02;;;;;;;5.67;1.53;;;14.80;99.90;;;;;;5079598;28;20213;-49
2023/10/07 07:01:51;;;;;;;6.50;1.47;;;14.80;99.90;;;;;;5068288;28;20280;-48
2023/10/07 07:04:21;;;;;;;7.00;1.50;;;14.80;99.90;;;;;;5072742;28;23281;-47
2023/10/07 07:06:57;;;;;;;7.90;1.50;;;14.80;99.90;;;;;;5076979;28;20194;-46
2023/10/07 07:09:50;;;;;;;5.17;1.77;;;14.80;99.90;;;;;;5066578;28;20221;-49
2023/10/07 07:12:21;;;;;;;8.17;1.87;;;14.80;99.90;;;;;;5065374;28;20228;-47
2023/10/07 07:14:51;;;;;;;7.00;1.80;;;14.70;99.90;;;;;;5085701;28;20284;-47
2023/10/07 07:17:43;;;;;;;6.03;1.43;;;14.70;99.90;;;;;;5066598;28;20275;-48
2023/10/07 07:20:29;;;;;;;7.67;2.00;;;14.80;99.90;;;;;;5075364;28;20237;-50
2023/10/07 07:22:58;;;;;;;7.93;1.67;;;14.80;99.90;;;;;;5058529;28;20253;-46
2023/10/07 07:25:36;;;;;;;3.23;1.60;;;14.70;99.90;;;;;;5071923;28;20194;-48
2023/10/07 07:28:05;;;;;;;7.13;1.40;;;14.80;99.90;;;;;;5064053;28;20201;-46
2023/10/07 07:30:35;;;;;;;4.37;1.50;;;14.80;99.90;;;;;;5086178;28;20201;-46
2023/10/07 07:33:08;;;;;;;6.00;1.37;;;14.80;99.90;;;;;;5062817;28;20576;-48
2023/10/07 07:35:40;;;;;;;5.67;1.57;;;14.80;99.90;;;;;;5086034;28;20202;-50
2023/10/07 07:38:25;;;;;;;6.63;1.30;;;14.70;99.90;;;;;;5056178;28;20206;-47
2023/10/07 07:41:03;;;;;;;6.50;1.30;;;14.70;99.90;;;;;;5045530;28;20228;-48
2023/10/07 07:43:30;;;;;;;4.73;1.30;;;14.80;99.90;;;;;;5072602;28;20216;-46
2023/10/07 07:46:11;;;;;;;2.23;1.20;;;14.80;99.90;;;;;;5071743;28;20724;-52
2023/10/07 07:48:39;;;;;;;4.77;1.17;;;14.80;99.90;;;;;;5072897;28;20232;-48
2023/10/07 07:51:07;;;;;;;4.93;1.53;;;14.80;99.90;;;;;;5068258;28;20193;-52
2023/10/07 07:53:34;;;;;;;2.63;0.90;;;14.80;99.90;;;;;;5082892;28;20198;-50
2023/10/07 07:56:00;;;;;;;8.03;1.10;;;14.80;99.90;;;;;;5050168;28;20221;-48
2023/10/07 07:58:27;;;;;;;5.93;1.43;;;14.80;99.90;;;;;;5061563;28;20226;-49
2023/10/07 08:01:04;;;;;;;4.00;1.23;;;14.90;99.90;;;;;;5072933;28;20210;-52
2023/10/07 08:03:35;;;;;;;1.60;0.90;;;14.90;99.90;;;;;;5083866;28;20198;-49
2023/10/07 08:06:04;;;;;;;2.77;1.13;;;14.90;99.90;;;;;;5071923;28;20198;-49
2023/10/07 08:08:36;;;;;;;3.80;1.00;;;14.90;99.90;;;;;;5082334;28;20301;-45
2023/10/07 08:11:05;;;;;;;5.87;1.10;;;14.90;99.90;;;;;;5049995;28;20201;-49
2023/10/07 08:13:32;;;;;;;3.90;1.00;;;14.90;99.90;;;;;;5074510;28;20233;-45
2023/10/07 08:16:06;;;;;;;1.83;0.70;;;14.90;99.90;;;;;;5065315;28;20673;-48
2023/10/07 08:18:33;;;;;;;1.43;0.90;;;14.90;99.90;;;;;;5083360;28;20709;-46
2023/10/07 08:21:07;;;;;;;1.97;1.30;;;14.80;99.90;;;;;;5072241;28;20281;-49
2023/10/07 08:23:37;;;;;;;2.20;0.90;;;14.80;99.90;;;;;;5083544;28;20276;-45
2023/10/07 08:26:10;;;;;;;4.00;0.90;;;14.80;99.90;;;;;;5050700;28;21468;-45
2023/10/07 08:28:45;;;;;;;2.50;0.80;;;14.70;99.90;;;;;;5074193;28;20762;-47
2023/10/07 08:31:16;;;;;;;4.30;0.87;;;14.80;99.90;;;;;;5064923;28;20210;-47
2023/10/07 08:33:47;;;;;;;2.80;0.83;;;14.80;99.90;;;;;;5082795;28;20566;-48
2023/10/07 08:36:15;;;;;;;4.23;0.77;;;14.80;99.90;;;;;;5079629;28;20189;-46
2023/10/07 08:38:45;;;;;;;2.13;0.97;;;14.80;99.90;;;;;;5075071;28;20225;-48
2023/10/07 08:41:17;;;;;;;5.47;1.00;;;14.80;99.90;;;;;;5080884;28;20222;-50
2023/10/07 08:43:48;;;;;;;3.43;0.80;;;14.70;99.90;;;;;;5048952;28;20284;-49
2023/10/07 08:46:16;;;;;;;3.23;0.60;;;14.60;99.90;;;;;;5067890;28;20229;-51
2023/10/07 08:48:52;;;;;;;2.80;1.40;;;14.60;99.90;;;;;;5078885;28;20225;-51
2023/10/07 08:51:22;;;;;;;4.70;1.10;;;14.70;99.90;;;;;;5081104;28;20193;-49
2023/10/07 08:53:56;;;;;;;1.97;0.90;;;14.70;99.90;;;;;;5072364;28;20587;-51
2023/10/07 08:56:28;;;;;;;2.37;0.87;;;14.70;99.90;;;;;;5080981;28;20194;-48
2023/10/07 08:58:55;;;;;;;5.03;0.77;;;14.70;99.90;;;;;;5048132;28;20222;-47
2023/10/07 09:01:24;;;;;;;2.73;0.80;;;14.70;99.90;;;;;;5072495;28;20301;-48
2023/10/07 09:03:56;;;;;;;2.63;0.93;;;14.80;99.90;;;;;;5088483;28;20247;-48
2023/10/07 09:06:27;;;;;;;3.53;0.93;;;14.80;99.90;;;;;;5080689;28;20280;-46
2023/10/07 09:08:56;;;;;;;2.70;0.80;;;14.80;99.90;;;;;;5074149;28;20635;-49
2023/10/07 09:11:27;;;;;;;2.33;0.70;;;14.80;99.90;;;;;;5081368;28;20229;-48
2023/10/07 09:13:55;;;;;;;2.83;1.37;;;14.80;99.90;;;;;;5049706;28;20218;-51
2023/10/07 09:16:25;;;;;;;2.30;0.80;;;14.70;99.90;;;;;;5080967;28;20304;-49
2023/10/07 09:18:57;;;;;;;1.80;0.77;;;14.70;99.90;;;;;;5071873;28;20305;-47
2023/10/07 09:21:33;;;;;;;2.63;0.90;;;14.60;99.90;;;;;;5081202;28;20220;-52
2023/10/07 09:24:02;;;;;;;5.07;1.10;;;14.60;99.90;;;;;;5069186;28;20205;-49
2023/10/07 09:26:33;;;;;;;4.20;0.90;;;14.60;99.90;;;;;;5081212;28;20194;-49
2023/10/07 09:29:08;;;;;;;2.43;0.70;;;14.70;99.90;;;;;;5052971;28;20205;-51
2023/10/07 09:31:35;;;;;;;2.13;1.17;;;14.70;99.90;;;;;;5067074;28;20202;-47
2023/10/07 09:34:09;;;;;;;1.20;0.60;;;14.70;99.90;;;;;;5072134;28;20680;-49
2023/10/07 09:36:40;;;;;;;3.03;0.70;;;14.70;99.90;;;;;;5067124;28;20213;-47
2023/10/07 09:39:31;;;;;;;0.70;0.50;;;14.80;99.90;;;;;;5069004;28;20253;-46
2023/10/07 09:42:04;;;;;;;1.43;0.57;;;14.80;99.90;;;;;;5079487;28;20308;-47
2023/10/07 09:44:31;;;;;;;3.50;0.90;;;14.70;99.90;;;;;;5081320;28;20190;-47
2023/10/07 09:47:19;;;;;;;1.50;1.17;;;14.80;99.90;;;;;;5048578;28;20205;-46
2023/10/07 09:49:45;;;;;;;2.57;1.10;;;14.80;99.90;;;;;;5073454;28;20317;-49
2023/10/07 09:52:16;;;;;;;3.50;0.80;;;14.80;99.90;;;;;;5084395;28;20204;-46
2023/10/07 09:55:18;;;;;;;2.00;0.90;;;14.80;99.90;;;;;;5076093;28;20205;-47
2023/10/07 09:57:55;;;;;;;2.93;1.13;;;14.90;99.90;;;;;;5085178;28;20205;-46
2023/10/07 10:00:40;;;;;;;3.70;0.97;;;14.90;99.90;;;;;;5053896;28;20312;-48
2023/10/07 10:03:47;;;;;;;3.70;0.70;;;14.80;99.90;;;;;;5075607;28;20256;-47
2023/10/07 10:06:26;;;;;;;3.93;0.70;;;14.80;99.90;;;;;;5081621;28;20228;-48
2023/10/07 10:08:57;;;;;;;0.83;0.40;;;14.80;99.90;;;;;;5082370;28;20218;-47
2023/10/07 10:11:44;;;;;;;2.13;0.57;;;14.70;99.90;;;;;;5082880;28;20204;-51
2023/10/07 10:14:29;;;;;;;1.77;0.60;;;14.70;99.90;;;;;;5081966;28;20992;-46
2023/10/07 10:16:57;;;;;;;2.03;0.40;;;14.70;99.90;;;;;;5050993;28;20202;-48
2023/10/07 10:19:44;;;;;;;0.53;0.47;;;14.70;99.90;;;;;;5074860;28;20225;-46
2023/10/07 10:22:12;;;;;;;0.90;0.70;;;14.60;99.90;;;;;;5083785;28;20201;-46
2023/10/07 10:24:44;;;;;;;1.33;0.70;;;14.70;99.90;;;;;;5084230;28;20190;-50
2023/10/07 10:27:13;;;;;;;1.90;0.60;;;14.60;99.90;;;;;;5077188;28;20268;-50
2023/10/07 10:29:52;;;;;;;1.43;0.73;;;14.70;99.90;;;;;;5084002;28;20708;-50
2023/10/07 10:32:28;;;;;;;1.50;0.63;;;14.70;99.90;;;;;;5064947;28;20223;-49
2023/10/07 10:34:56;;;;;;;1.60;1.00;;;14.70;99.90;;;;;;5071047;28;20244;-49
2023/10/07 10:37:26;;;;;;;0.97;0.57;;;14.70;99.90;;;;;;5086292;28;20202;-48
2023/10/07 10:39:54;;;;;;;0.83;0.40;;;14.70;99.90;;;;;;5070554;28;20274;-48
2023/10/07 10:42:24;;;;;;;1.00;0.60;;;14.80;99.90;;;;;;5080629;28;20205;-45
2023/10/07 10:44:53;;;;;;;0.53;0.47;;;14.70;99.90;;;;;;5079589;28;20590;-46
2023/10/07 10:47:21;;;;;;;0.80;0.50;;;14.70;99.90;;;;;;5047473;28;20208;-46
2023/10/07 10:49:54;;;;;;;1.17;0.50;;;14.80;99.90;;;;;;5077246;28;20226;-48
2023/10/07 10:52:21;;;;;;;0.40;0.40;;;14.80;99.90;;;;;;5085881;28;20351;-45
2023/10/07 10:54:48;;;;;;;1.53;0.50;;;14.70;99.90;;;;;;5080721;28;20281;-50
2023/10/07 10:57:19;;;;;;;1.40;0.37;;;14.60;99.90;;;;;;5079046;28;20223;-45
2023/10/07 10:59:48;;;;;;;0.37;0.30;;;14.60;99.90;;;;;;5081237;28;20237;-47
2023/10/07 11:02:17;;;;;;;0.40;0.40;;;14.50;99.90;;;;;;5052521;28;20205;-45
2023/10/07 11:04:46;;;;;;;0.83;0.40;;;14.50;99.90;;;;;;5080807;28;20649;-47
2023/10/07 11:07:14;;;;;;;2.20;0.23;;;14.50;99.90;;;;;;5076524;28;20281;-47
2023/10/07 11:09:42;;;;;;;1.10;0.47;;;14.50;99.90;;;;;;5083088;28;20709;-46
2023/10/07 11:12:13;;;;;;;1.63;0.40;;;14.50;99.90;;;;;;5072335;28;20202;-45
2023/10/07 11:14:41;;;;;;;0.93;0.30;;;14.50;99.90;;;;;;5082869;28;20737;-49
2023/10/07 11:17:10;;;;;;;0.93;0.70;;;14.50;99.90;;;;;;5080512;28;20366;-46
2023/10/07 11:19:42;;;;;;;0.60;0.40;;;14.50;99.90;;;;;;5052836;28;20225;-45
2023/10/07 11:22:08;;;;;;;0.40;0.40;;;14.50;99.90;;;;;;5072733;28;20213;-46
2023/10/07 11:24:37;;;;;;;0.50;0.23;;;14.50;99.90;;;;;;5083737;28;20670;-46
2023/10/07 11:27:04;;;;;;;0.40;0.30;;;14.40;99.90;;;;;;5065523;28;20275;-46
2023/10/07 11:29:32;;;;;;;2.37;0.33;;;14.40;99.90;;;;;;5089520;28;20301;-50
2023/10/07 11:31:59;;;;;;;2.63;0.30;;;14.40;99.90;;;;;;5080233;28;20900;-45
2023/10/07 11:34:33;;;;;;;0.97;0.40;;;14.40;99.90;;;;;;5055908;28;20221;-46
2023/10/07 11:37:11;;;;;;;0.83;0.70;;;14.40;99.90;;;;;;5074682;28;20201;-47
2023/10/07 11:39:45;;;;;;;0.97;0.57;;;14.40;99.90;;;;;;5082135;28;20230;-46
2023/10/07 11:42:14;;;;;;;0.60;0.50;;;14.40;99.90;;;;;;5075707;28;20356;-46
2023/10/07 11:44:42;;;;;;;0.80;0.50;;;14.40;99.90;;;;;;5087451;28;20263;-48
2023/10/07 11:47:10;;;;;;;0.50;0.40;;;14.40;99.90;;;;;;5081904;28;20383;-49
2023/10/07 11:49:39;;;;;;;1.07;0.40;;;14.40;99.90;;;;;;5080792;28;20329;-47
2023/10/07 11:52:07;;;;;;;0.60;0.50;;;14.40;99.90;;;;;;5047272;28;20300;-45
2023/10/07 11:54:35;;;;;;;1.00;0.60;;;14.50;99.90;;;;;;5082888;28;20222;-46
2023/10/07 11:57:05;;;;;;;1.23;0.50;;;14.50;99.90;;;;;;5078886;28;20259;-49
2023/10/07 11:59:35;;;;;;;0.60;0.30;;;14.50;99.90;;;;;;5073598;28;20889;-47
2023/10/07 12:02:09;;;;;;;1.40;0.60;;;14.40;99.90;;;;;;5078478;28;20189;-47
2023/10/07 12:04:42;;;;;;;0.60;0.37;;;14.50;99.90;;;;;;5082616;28;20214;-49
2023/10/07 12:07:12;;;;;;;0.40;0.30;;;14.50;99.90;;;;;;5039916;28;20798;-47
2023/10/07 12:09:39;;;;;;;0.77;0.70;;;14.50;99.90;;;;;;5076687;28;20323;-47
2023/10/07 12:12:09;;;;;;;0.40;0.40;;;14.50;99.90;;;;;;5078367;28;20243;-47
2023/10/07 12:14:36;;;;;;;1.90;0.80;;;14.50;99.90;;;;;;5073222;28;20640;-45
2023/10/07 12:17:04;;;;;;;1.37;0.30;;;14.60;99.90;;;;;;5078770;28;20905;-47
2023/10/07 12:19:31;;;;;;;1.13;0.43;;;14.60;99.90;;;;;;5082124;28;20965;-48
2023/10/07 12:22:00;;;;;;;0.40;0.40;;;14.50;99.90;;;;;;5039269;28;20210;-47
2023/10/07 12:24:27;;;;;;;1.40;0.40;;;14.50;99.90;;;;;;5084027;28;21554;-48
2023/10/07 12:26:55;;;;;;;1.20;0.40;;;14.50;99.90;;;;;;5080285;28;20190;-46
2023/10/07 12:29:23;;;;;;;0.70;0.70;;;14.50;99.90;;;;;;5073358;28;20572;-48
2023/10/07 12:31:51;;;;;;;0.83;0.50;;;14.50;99.90;;;;;;5081272;28;20226;-50
2023/10/07 12:34:18;;;;;;;0.43;0.40;;;14.50;99.90;;;;;;5081454;28;20240;-49
2023/10/07 12:36:45;;;;;;;0.93;0.47;;;14.50;99.90;;;;;;5048188;28;22113;-50
2023/10/07 12:39:14;;;;;;;0.57;0.37;;;14.50;99.90;;;;;;5073840;28;20226;-49
2023/10/07 12:41:41;;;;;;;0.53;0.30;;;14.50;99.90;;;;;;5078788;28;20894;-47
2023/10/07 12:44:12;;;;;;;0.83;0.43;;;14.50;99.90;;;;;;5081719;28;20194;-46
2023/10/07 12:46:40;;;;;;;0.30;0.20;;;14.50;99.90;;;;;;5069924;28;20243;-46
2023/10/07 12:49:10;;;;;;;1.00;0.17;;;14.50;99.90;;;;;;5081398;28;20587;-48
2023/10/07 12:51:38;;;;;;;0.60;0.60;;;14.40;99.90;;;;;;5046820;28;20206;-46
2023/10/07 12:54:08;;;;;;;0.40;0.20;;;14.40;99.90;;;;;;5073864;28;20210;-48
2023/10/07 12:56:37;;;;;;;0.20;0.20;;;14.40;99.90;;;;;;5077570;28;20198;-48
2023/10/07 12:59:17;;;;;;;0.20;0.20;;;14.30;99.90;;;;;;5083108;28;20215;-49
2023/10/07 13:01:45;;;;;;;0.60;0.43;;;14.30;99.90;;;;;;5071610;28;20210;-46
2023/10/07 13:04:12;;;;;;;1.73;0.30;;;14.30;99.90;;;;;;5081934;28;20186;-48
2023/10/07 13:06:42;;;;;;;0.30;0.30;;;14.30;99.90;;;;;;5077722;28;20919;-49
2023/10/07 13:09:16;;;;;;;0.30;0.23;;;14.20;99.90;;;;;;5041933;28;20298;-46